Time;durP1;ratioP1;P1;durP2;ratioP2;P2;SDS_P1;SDS_P2;PMS_P1;PMS_P2;Temp;Humidity;BMP_temperature;BMP_pressure;BME280_temperature;BME280_humidity;BME280_pressure;Samples;Min_cycle;Max_cycle;Signal;HPM_P1;HPM_P2
2022/09/08 00:02:24;;;;;;;4.60;3.30;;;18.90;99.90;;;;;;5115164;28;20196;-74
2022/09/08 00:04:51;;;;;;;8.23;3.33;;;18.90;99.90;;;;;;5115075;28;20199;-76
2022/09/08 00:07:19;;;;;;;5.78;3.53;;;18.80;99.90;;;;;;5114959;28;20252;-77
2022/09/08 00:09:46;;;;;;;5.88;4.05;;;18.60;99.90;;;;;;5115278;28;20282;-76
2022/09/08 00:12:15;;;;;;;6.45;4.15;;;18.10;99.90;;;;;;5114898;28;20199;-76
2022/09/08 00:14:42;;;;;;;8.88;4.35;;;17.70;99.90;;;;;;5114934;28;20196;-76
2022/09/08 00:17:09;;;;;;;11.20;5.68;;;17.50;99.90;;;;;;5114869;28;20227;-76
2022/09/08 00:19:36;;;;;;;8.63;5.63;;;17.20;99.90;;;;;;5114754;28;20647;-76
2022/09/08 00:22:02;;;;;;;6.80;5.68;;;16.90;99.90;;;;;;5114732;28;20203;-76
2022/09/08 00:24:30;;;;;;;9.95;6.38;;;16.80;99.90;;;;;;5114827;28;20252;-76
2022/09/08 00:26:57;;;;;;;14.35;7.93;;;16.80;99.90;;;;;;5114720;28;20196;-76
2022/09/08 00:29:23;;;;;;;8.25;7.10;;;16.80;99.90;;;;;;5114511;28;20675;-76
2022/09/08 00:31:50;;;;;;;12.30;7.63;;;16.70;99.90;;;;;;5114543;28;20274;-76
2022/09/08 00:34:17;;;;;;;14.73;8.77;;;16.80;99.90;;;;;;5114483;28;20597;-76
2022/09/08 00:36:43;;;;;;;13.10;10.00;;;16.80;99.90;;;;;;5114784;28;20215;-75
2022/09/08 00:39:10;;;;;;;14.60;11.32;;;16.90;99.90;;;;;;5114820;28;20245;-75
2022/09/08 00:41:38;;;;;;;12.95;10.35;;;16.90;99.90;;;;;;5114446;28;20207;-76
2022/09/08 00:44:36;;;;;;;16.50;10.20;;;16.90;99.90;;;;;;5114501;28;20196;-76
2022/09/08 00:47:04;;;;;;;11.80;10.60;;;16.90;99.90;;;;;;5114451;28;20215;-75
2022/09/08 00:49:32;;;;;;;9.65;8.68;;;16.90;99.90;;;;;;5114583;28;20195;-75
2022/09/08 00:51:59;;;;;;;11.53;10.23;;;16.90;99.90;;;;;;5114454;28;20280;-76
2022/09/08 00:54:26;;;;;;;17.10;10.50;;;16.90;99.90;;;;;;5114391;28;20196;-75
2022/09/08 00:56:58;;;;;;;12.80;9.98;;;16.90;99.90;;;;;;5113185;28;20686;-75
2022/09/08 00:59:26;;;;;;;13.52;11.15;;;16.70;99.90;;;;;;5113900;28;20875;-75
2022/09/08 01:01:54;;;;;;;12.88;9.75;;;16.70;99.90;;;;;;5114113;28;20202;-75
2022/09/08 01:04:22;;;;;;;16.85;9.77;;;16.70;99.90;;;;;;5113962;28;20202;-75
2022/09/08 01:12:45;;;;;;;12.75;9.57;;;16.80;99.90;;;;;;5113941;28;20695;-76
2022/09/08 01:15:15;;;;;;;11.13;10.05;;;16.80;99.90;;;;;;5113915;28;20203;-75
2022/09/08 01:17:42;;;;;;;11.38;10.02;;;16.80;99.90;;;;;;5113685;28;20234;-75
2022/09/08 01:20:10;;;;;;;13.95;10.55;;;17.00;99.90;;;;;;5113633;28;20195;-75
2022/09/08 01:22:55;;;;;;;14.52;9.30;;;16.90;99.90;;;;;;5113773;28;20195;-75
2022/09/08 01:25:39;;;;;;;12.15;9.27;;;16.70;99.90;;;;;;5113589;28;20723;-75
2022/09/08 01:28:11;;;;;;;11.35;9.60;;;16.70;99.90;;;;;;5113571;28;20249;-75
2022/09/08 01:30:38;;;;;;;12.93;10.85;;;16.80;99.90;;;;;;5113397;28;20199;-75
2022/09/08 01:33:06;;;;;;;10.02;9.02;;;16.90;99.90;;;;;;5113641;28;20269;-75
2022/09/08 01:35:38;;;;;;;12.98;9.65;;;16.90;99.90;;;;;;5113362;28;20221;-75
2022/09/08 01:38:05;;;;;;;12.25;10.38;;;16.90;99.90;;;;;;5113340;28;20292;-75
2022/09/08 01:40:31;;;;;;;11.63;10.43;;;16.90;99.90;;;;;;5113288;28;20555;-76
2022/09/08 01:42:58;;;;;;;9.13;8.20;;;16.90;99.90;;;;;;5113189;28;20243;-75
2022/09/08 01:45:27;;;;;;;9.90;8.70;;;16.80;99.90;;;;;;5113217;28;20199;-76
2022/09/08 01:47:54;;;;;;;9.75;8.75;;;16.90;99.90;;;;;;5113363;28;20207;-75
2022/09/08 01:50:21;;;;;;;14.95;10.18;;;16.80;99.90;;;;;;5113395;28;20268;-75
2022/09/08 01:52:48;;;;;;;13.00;11.02;;;16.70;99.90;;;;;;5113635;28;20217;-75
2022/09/08 01:55:15;;;;;;;14.50;11.40;;;16.70;99.90;;;;;;5125210;28;20246;-76
2022/09/08 01:57:41;;;;;;;12.57;10.80;;;16.80;99.90;;;;;;5128643;28;20257;-75
2022/09/08 02:00:09;;;;;;;10.73;9.63;;;16.90;99.90;;;;;;5127818;28;20206;-75
2022/09/08 02:02:37;;;;;;;6.65;5.75;;;16.80;99.90;;;;;;5127451;28;20605;-76
2022/09/08 02:05:04;;;;;;;7.63;6.20;;;16.60;99.90;;;;;;5122803;28;20199;-75
2022/09/08 02:07:32;;;;;;;8.85;7.75;;;16.70;99.90;;;;;;5113893;28;20195;-75
2022/09/08 02:09:59;;;;;;;9.60;8.38;;;16.60;99.90;;;;;;5117303;28;20204;-76
2022/09/08 02:12:25;;;;;;;8.82;7.72;;;16.50;99.90;;;;;;5117148;28;20199;-75
2022/09/08 02:14:52;;;;;;;9.63;7.65;;;16.60;99.90;;;;;;5117324;28;20195;-76
2022/09/08 02:17:19;;;;;;;9.65;6.97;;;16.70;99.90;;;;;;5116997;28;20221;-75
2022/09/08 02:19:47;;;;;;;7.05;5.30;;;16.70;99.90;;;;;;5117093;28;20199;-75
2022/09/08 02:22:14;;;;;;;6.00;4.95;;;16.70;99.90;;;;;;5117085;28;20195;-76
2022/09/08 02:24:41;;;;;;;5.30;4.50;;;16.60;99.90;;;;;;5116899;28;20195;-76
2022/09/08 02:27:08;;;;;;;6.63;4.85;;;16.50;99.90;;;;;;5116893;28;20192;-75
2022/09/08 02:29:35;;;;;;;5.53;4.53;;;16.50;99.90;;;;;;5117250;28;20199;-75
2022/09/08 02:32:02;;;;;;;6.07;4.38;;;16.50;99.90;;;;;;5116979;28;20268;-75
2022/09/08 02:34:29;;;;;;;8.43;4.78;;;16.50;99.90;;;;;;5117049;28;20241;-75
2022/09/08 02:36:57;;;;;;;5.82;4.40;;;16.50;99.90;;;;;;5116681;28;20222;-75
2022/09/08 02:39:24;;;;;;;5.72;4.95;;;16.50;99.90;;;;;;5116612;28;20199;-75
2022/09/08 02:41:51;;;;;;;7.97;4.97;;;16.50;99.90;;;;;;5116707;28;20207;-75
2022/09/08 02:44:17;;;;;;;8.13;5.18;;;16.50;99.90;;;;;;5116848;28;20257;-75
2022/09/08 02:46:44;;;;;;;7.13;5.77;;;16.50;99.90;;;;;;5116714;28;20196;-75
2022/09/08 02:49:11;;;;;;;7.43;5.77;;;16.60;99.90;;;;;;5116613;28;20539;-75
2022/09/08 02:51:38;;;;;;;6.90;6.13;;;16.60;99.90;;;;;;5116524;28;20199;-75
2022/09/08 02:54:06;;;;;;;8.52;6.38;;;16.70;99.90;;;;;;5116250;28;20204;-75
2022/09/08 02:56:33;;;;;;;6.30;5.70;;;16.70;99.90;;;;;;5116293;28;20223;-75
2022/09/08 02:59:01;;;;;;;7.00;6.13;;;16.70;99.90;;;;;;5116541;27;20248;-75
2022/09/08 03:01:28;;;;;;;7.95;6.65;;;16.70;99.90;;;;;;5116389;28;20260;-75
2022/09/08 03:03:54;;;;;;;8.48;6.35;;;16.70;99.90;;;;;;5116280;28;20207;-75
2022/09/08 03:06:21;;;;;;;7.10;6.40;;;16.70;99.90;;;;;;5116134;28;20195;-75
2022/09/08 03:08:49;;;;;;;9.13;7.20;;;16.70;99.90;;;;;;5116058;28;20264;-75
2022/09/08 03:11:17;;;;;;;8.23;6.60;;;16.70;99.90;;;;;;5116074;28;20689;-75
2022/09/08 03:13:44;;;;;;;7.93;6.63;;;16.60;99.90;;;;;;5116115;28;20290;-75
2022/09/08 03:16:10;;;;;;;7.85;6.43;;;16.60;99.90;;;;;;5116296;28;20221;-75
2022/09/08 03:18:37;;;;;;;6.38;5.50;;;16.60;99.90;;;;;;5115494;28;20268;-75
2022/09/08 03:21:07;;;;;;;4.75;4.30;;;16.60;99.90;;;;;;5116091;28;20241;-75
2022/09/08 03:23:34;;;;;;;6.03;4.03;;;16.70;99.90;;;;;;5116249;28;20196;-75
2022/09/08 03:26:02;;;;;;;4.97;3.97;;;16.70;99.90;;;;;;5116238;28;20192;-75
2022/09/08 03:28:30;;;;;;;4.03;3.47;;;16.70;99.90;;;;;;5116067;28;20203;-75
2022/09/08 03:30:57;;;;;;;4.00;3.60;;;16.70;99.90;;;;;;5115855;28;20199;-75
2022/09/08 03:33:24;;;;;;;4.70;3.20;;;16.70;99.90;;;;;;5115739;28;20200;-75
2022/09/08 03:35:50;;;;;;;5.17;3.20;;;16.80;99.90;;;;;;5115696;28;20208;-75
2022/09/08 03:38:18;;;;;;;3.07;2.77;;;16.80;99.90;;;;;;5115797;28;20249;-75
2022/09/08 03:40:45;;;;;;;3.03;2.60;;;16.80;99.90;;;;;;5115666;28;20203;-75
2022/09/08 03:43:12;;;;;;;2.97;2.67;;;16.80;99.90;;;;;;5115541;28;20607;-75
2022/09/08 03:45:43;;;;;;;3.65;2.60;;;16.80;99.90;;;;;;5115558;28;20670;-75
2022/09/08 03:48:10;;;;;;;3.00;2.80;;;16.70;99.90;;;;;;5115518;28;20658;-75
2022/09/08 03:50:37;;;;;;;3.57;2.27;;;16.70;99.90;;;;;;5115660;28;20204;-75
2022/09/08 03:53:04;;;;;;;2.92;2.60;;;16.70;99.90;;;;;;5115326;28;20211;-75
2022/09/08 03:55:31;;;;;;;3.42;2.50;;;16.60;99.90;;;;;;5115154;28;20223;-75
2022/09/08 03:57:58;;;;;;;4.07;2.90;;;16.60;99.90;;;;;;5115345;28;20228;-75
2022/09/08 04:00:25;;;;;;;3.38;3.00;;;16.60;99.90;;;;;;5115322;28;20196;-76
2022/09/08 04:02:54;;;;;;;4.82;2.60;;;16.50;99.90;;;;;;5115048;28;20200;-75
2022/09/08 04:05:21;;;;;;;4.93;2.50;;;16.60;99.90;;;;;;5115350;28;20662;-75
2022/09/08 04:07:48;;;;;;;2.53;2.30;;;16.60;99.90;;;;;;5115130;28;20200;-75
2022/09/08 04:10:15;;;;;;;3.58;2.70;;;16.50;99.90;;;;;;5115116;28;20196;-75
2022/09/08 04:12:42;;;;;;;2.45;2.25;;;16.60;99.90;;;;;;5114994;28;20206;-75
2022/09/08 04:15:09;;;;;;;2.70;2.50;;;16.60;99.90;;;;;;5115147;28;20199;-75
2022/09/08 04:17:37;;;;;;;5.20;2.78;;;16.60;99.90;;;;;;5115218;28;20223;-75
2022/09/08 04:20:06;;;;;;;4.75;2.70;;;16.60;99.90;;;;;;5114930;28;20574;-75
2022/09/08 04:22:33;;;;;;;3.70;2.60;;;16.50;99.90;;;;;;5115170;28;20195;-75
2022/09/08 04:25:01;;;;;;;3.53;2.43;;;16.50;99.90;;;;;;5114953;28;20200;-75
2022/09/08 04:27:27;;;;;;;2.60;2.40;;;16.50;99.90;;;;;;5114871;28;20210;-75
2022/09/08 04:29:54;;;;;;;4.03;2.60;;;16.50;99.90;;;;;;5113992;28;20200;-75
2022/09/08 04:32:21;;;;;;;3.13;2.80;;;16.50;99.90;;;;;;5114651;28;20195;-75
2022/09/08 04:34:49;;;;;;;4.67;2.67;;;16.40;99.90;;;;;;5114622;28;20249;-74
2022/09/08 04:37:18;;;;;;;3.17;2.87;;;16.40;99.90;;;;;;5114745;28;20274;-74
2022/09/08 04:39:44;;;;;;;4.07;2.80;;;16.40;99.90;;;;;;5115500;28;20191;-75
2022/09/08 04:42:11;;;;;;;4.30;3.40;;;16.40;99.90;;;;;;5132507;28;20252;-75
2022/09/08 04:44:38;;;;;;;4.47;3.28;;;16.30;99.90;;;;;;5132660;28;20195;-74
2022/09/08 04:47:05;;;;;;;3.30;3.00;;;16.30;99.90;;;;;;5135343;28;20200;-74
2022/09/08 04:49:31;;;;;;;4.17;3.20;;;16.30;99.90;;;;;;5131579;28;20225;-74
2022/09/08 04:51:58;;;;;;;4.27;3.53;;;16.30;99.90;;;;;;5134565;28;20226;-75
2022/09/08 04:54:26;;;;;;;6.77;3.67;;;16.30;99.90;;;;;;5119032;28;20559;-75
2022/09/08 04:56:54;;;;;;;5.03;3.67;;;16.20;99.90;;;;;;5114155;28;20273;-74
2022/09/08 04:59:20;;;;;;;3.97;3.63;;;16.20;99.90;;;;;;5114366;28;20616;-75
2022/09/08 05:01:47;;;;;;;3.83;3.43;;;16.20;99.90;;;;;;5114158;28;20204;-75
2022/09/08 05:04:13;;;;;;;3.95;3.53;;;16.20;99.90;;;;;;5114094;28;20196;-75
2022/09/08 05:06:40;;;;;;;3.40;3.10;;;16.20;99.90;;;;;;5114134;28;20609;-75
2022/09/08 05:09:07;;;;;;;9.53;3.70;;;16.20;99.90;;;;;;5114011;28;20203;-75
2022/09/08 05:11:36;;;;;;;3.85;3.45;;;16.20;99.90;;;;;;5113867;28;20199;-75
2022/09/08 05:14:03;;;;;;;4.70;3.00;;;16.30;99.90;;;;;;5114118;28;20192;-75
2022/09/08 05:16:31;;;;;;;3.33;2.95;;;16.30;99.90;;;;;;5113796;28;20871;-75
2022/09/08 05:18:59;;;;;;;3.53;2.93;;;16.40;99.90;;;;;;5113770;28;20284;-75
2022/09/08 05:21:26;;;;;;;3.57;2.90;;;16.40;99.90;;;;;;5113742;28;20203;-75
2022/09/08 05:23:59;;;;;;;4.78;3.15;;;16.40;99.90;;;;;;5113591;28;20225;-75
2022/09/08 05:26:27;;;;;;;4.07;2.70;;;16.50;99.90;;;;;;5113860;28;20196;-75
2022/09/08 05:28:55;;;;;;;3.95;2.35;;;16.50;99.90;;;;;;5113547;28;20722;-77
2022/09/08 05:31:23;;;;;;;3.10;2.90;;;16.50;99.90;;;;;;5113602;28;20665;-75
2022/09/08 05:33:51;;;;;;;3.15;2.83;;;16.60;99.90;;;;;;5113993;28;20196;-75
2022/09/08 05:36:20;;;;;;;5.30;3.27;;;16.60;99.90;;;;;;5113534;28;20192;-74
2022/09/08 05:38:46;;;;;;;3.70;3.23;;;16.60;99.90;;;;;;5113260;28;20279;-75
2022/09/08 05:41:14;;;;;;;4.33;2.70;;;16.70;99.90;;;;;;5113386;28;20191;-74
2022/09/08 05:43:41;;;;;;;4.60;2.70;;;16.70;99.90;;;;;;5113248;28;20248;-75
2022/09/08 05:46:09;;;;;;;4.75;2.20;;;16.70;99.90;;;;;;5113351;28;20256;-76
2022/09/08 05:48:36;;;;;;;3.30;2.10;;;16.70;99.90;;;;;;5113441;28;20199;-76
2022/09/08 05:51:07;;;;;;;8.43;2.47;;;16.60;99.90;;;;;;5113048;28;20200;-76
2022/09/08 05:53:34;;;;;;;3.45;1.92;;;16.60;99.90;;;;;;5113318;28;20195;-76
2022/09/08 05:56:02;;;;;;;3.15;2.30;;;16.70;99.90;;;;;;5112957;28;20223;-76
2022/09/08 05:58:30;;;;;;;6.30;2.08;;;16.70;99.90;;;;;;5113124;28;20228;-76
2022/09/08 06:00:58;;;;;;;2.65;1.80;;;16.70;99.90;;;;;;5113170;28;20226;-76
2022/09/08 06:03:26;;;;;;;1.63;1.52;;;16.70;99.90;;;;;;5113046;28;20245;-76
2022/09/08 06:05:53;;;;;;;7.27;2.10;;;16.70;99.90;;;;;;5112988;28;20191;-77
2022/09/08 06:08:21;;;;;;;4.37;2.50;;;16.60;99.90;;;;;;5113227;28;20295;-77
2022/09/08 06:10:50;;;;;;;3.30;2.20;;;16.60;99.90;;;;;;5112951;28;20665;-77
2022/09/08 06:13:16;;;;;;;1.93;1.73;;;16.60;99.90;;;;;;5112983;28;20206;-76
2022/09/08 06:15:43;;;;;;;2.13;1.80;;;16.50;99.90;;;;;;5113164;28;20237;-77
2022/09/08 06:18:10;;;;;;;1.90;1.70;;;16.50;99.90;;;;;;5112828;28;20215;-77
2022/09/08 06:20:38;;;;;;;2.87;1.90;;;16.50;99.90;;;;;;5113268;28;20624;-77
2022/09/08 06:23:05;;;;;;;3.27;1.90;;;16.40;99.90;;;;;;5113135;28;20191;-76
2022/09/08 06:25:31;;;;;;;2.43;1.90;;;16.40;99.90;;;;;;5113369;28;20222;-76
2022/09/08 06:28:03;;;;;;;3.00;1.83;;;16.40;99.90;;;;;;5112905;28;20192;-75
2022/09/08 06:30:29;;;;;;;2.17;1.90;;;16.30;99.90;;;;;;5112748;28;20204;-75
2022/09/08 06:32:59;;;;;;;4.10;1.83;;;16.30;99.90;;;;;;5112876;28;20200;-76
2022/09/08 06:35:29;;;;;;;2.20;2.00;;;16.30;99.90;;;;;;5112886;28;20229;-75
2022/09/08 06:38:00;;;;;;;2.27;1.80;;;16.20;99.90;;;;;;5112568;28;20869;-75
2022/09/08 06:40:33;;;;;;;3.13;2.00;;;16.20;99.90;;;;;;5112799;28;20204;-75
2022/09/08 06:43:04;;;;;;;2.93;2.20;;;16.20;99.90;;;;;;5112655;28;20249;-75
2022/09/08 06:45:36;;;;;;;2.37;1.97;;;16.20;99.90;;;;;;5112861;28;20230;-74
2022/09/08 06:48:16;;;;;;;2.77;2.17;;;16.20;99.90;;;;;;5112876;28;20258;-74
2022/09/08 06:51:04;;;;;;;5.67;2.50;;;16.10;99.90;;;;;;5112827;28;20199;-74
2022/09/08 06:53:36;;;;;;;3.57;2.07;;;16.10;99.90;;;;;;5113146;28;20527;-75
2022/09/08 06:56:15;;;;;;;5.40;2.20;;;16.00;99.90;;;;;;5116325;28;20559;-74
2022/09/08 06:58:44;;;;;;;4.17;2.50;;;16.00;99.90;;;;;;5116402;28;20227;-74
2022/09/08 07:01:17;;;;;;;2.57;2.20;;;16.00;99.90;;;;;;5116243;28;20655;-74
2022/09/08 07:03:59;;;;;;;4.03;2.17;;;16.10;99.90;;;;;;5116286;28;20606;-74
2022/09/08 07:06:31;;;;;;;2.07;1.90;;;16.00;99.90;;;;;;5116450;28;20248;-75
2022/09/08 07:09:11;;;;;;;2.50;2.23;;;16.00;99.90;;;;;;5116295;28;20206;-74
2022/09/08 07:11:54;;;;;;;3.40;2.00;;;16.00;99.90;;;;;;5116204;28;20191;-75
2022/09/08 07:14:50;;;;;;;4.87;2.00;;;16.00;99.90;;;;;;5115726;28;20245;-74
2022/09/08 07:17:22;;;;;;;2.60;2.17;;;16.00;99.90;;;;;;5116117;28;20204;-74
2022/09/08 07:19:50;;;;;;;4.17;2.50;;;15.90;99.90;;;;;;5115948;28;20224;-74
2022/09/08 07:22:27;;;;;;;2.80;2.50;;;15.90;99.90;;;;;;5115937;28;20198;-74
2022/09/08 07:25:18;;;;;;;3.03;2.23;;;15.80;99.90;;;;;;5115635;28;20241;-73
2022/09/08 07:27:47;;;;;;;5.37;2.10;;;15.70;99.90;;;;;;5116017;28;20248;-73
2022/09/08 07:30:17;;;;;;;4.37;2.50;;;15.60;99.90;;;;;;5115957;28;20265;-73
2022/09/08 07:32:47;;;;;;;3.93;2.60;;;15.60;99.90;;;;;;5115643;28;20204;-72
2022/09/08 07:35:25;;;;;;;3.50;2.40;;;15.50;99.90;;;;;;5115581;28;20626;-72
2022/09/08 07:37:55;;;;;;;4.30;2.27;;;15.50;99.90;;;;;;5116177;28;20192;-72
2022/09/08 07:40:35;;;;;;;3.87;2.20;;;15.50;99.90;;;;;;5116218;28;20297;-73
2022/09/08 07:43:09;;;;;;;4.57;3.07;;;15.60;99.90;;;;;;5116138;28;20195;-72
2022/09/08 07:45:39;;;;;;;3.07;2.63;;;15.60;99.90;;;;;;5116234;28;20199;-72
2022/09/08 07:48:11;;;;;;;3.67;2.30;;;15.70;99.90;;;;;;5115817;28;20286;-72
2022/09/08 07:50:57;;;;;;;2.93;2.30;;;15.70;99.90;;;;;;5115591;28;20601;-72
2022/09/08 07:53:44;;;;;;;4.70;2.23;;;15.70;99.90;;;;;;5115447;28;20221;-73
2022/09/08 07:56:16;;;;;;;3.30;2.30;;;15.80;99.90;;;;;;5115224;28;20269;-73
2022/09/08 07:58:51;;;;;;;2.63;2.43;;;15.80;99.90;;;;;;5115307;28;20251;-73
2022/09/08 08:01:27;;;;;;;6.70;2.43;;;15.90;99.90;;;;;;5114030;28;20202;-74
2022/09/08 08:04:04;;;;;;;2.63;2.07;;;15.90;99.90;;;;;;5115072;28;20221;-73
2022/09/08 08:06:38;;;;;;;3.63;2.30;;;15.90;99.90;;;;;;5114967;28;20248;-74
2022/09/08 08:09:19;;;;;;;2.47;2.07;;;15.90;99.90;;;;;;5115312;28;20290;-74
2022/09/08 08:11:58;;;;;;;4.83;1.97;;;16.00;99.90;;;;;;5115074;28;20199;-74
2022/09/08 08:14:35;;;;;;;1.97;1.70;;;15.90;99.90;;;;;;5114827;28;20248;-74
2022/09/08 08:17:18;;;;;;;3.00;1.70;;;15.90;99.90;;;;;;5114807;28;20203;-75
2022/09/08 08:20:04;;;;;;;2.60;1.57;;;15.90;99.90;;;;;;5114758;28;20265;-75
2022/09/08 08:22:49;;;;;;;2.77;1.50;;;15.80;99.90;;;;;;5114681;28;20202;-75
2022/09/08 08:25:22;;;;;;;2.33;1.70;;;15.80;99.90;;;;;;5114670;28;20242;-73
2022/09/08 08:28:01;;;;;;;1.53;1.43;;;15.80;99.90;;;;;;5114553;28;20666;-74
2022/09/08 08:30:28;;;;;;;2.77;1.53;;;15.80;99.90;;;;;;5114665;28;20258;-74
2022/09/08 08:33:00;;;;;;;2.37;1.50;;;15.90;99.90;;;;;;5114443;28;20658;-74
2022/09/08 08:35:34;;;;;;;2.67;1.07;;;15.90;99.90;;;;;;5114453;28;20199;-74
2022/09/08 08:38:01;;;;;;;1.40;1.27;;;15.90;99.90;;;;;;5114366;28;20203;-73
2022/09/08 08:40:34;;;;;;;1.30;1.20;;;15.90;99.90;;;;;;5114441;28;20231;-74
2022/09/08 08:43:16;;;;;;;3.57;1.30;;;15.80;99.90;;;;;;5114458;28;20254;-74
2022/09/08 08:45:53;;;;;;;2.00;1.20;;;15.80;99.90;;;;;;5114381;28;20268;-74
2022/09/08 08:48:34;;;;;;;4.27;1.40;;;15.80;99.90;;;;;;5114156;28;20191;-74
2022/09/08 08:51:30;;;;;;;1.57;1.20;;;16.00;99.90;;;;;;5114376;28;20192;-73
2022/09/08 08:54:29;;;;;;;2.03;1.10;;;16.00;99.90;;;;;;5113021;27;20196;-74
2022/09/08 08:57:21;;;;;;;1.23;1.00;;;16.10;99.90;;;;;;5114012;28;20285;-73
2022/09/08 09:00:13;;;;;;;1.43;1.20;;;16.10;99.90;;;;;;5113909;28;20300;-74
2022/09/08 09:02:58;;;;;;;1.60;1.40;;;16.20;99.90;;;;;;5110561;28;20203;-75
2022/09/08 09:05:45;;;;;;;1.58;1.20;;;16.30;99.90;;;;;;5114113;28;20199;-73
2022/09/08 09:08:44;;;;;;;2.90;1.20;;;16.60;99.90;;;;;;5113783;28;20195;-73
2022/09/08 09:11:39;;;;;;;1.93;1.30;;;16.40;99.90;;;;;;5113703;28;20249;-74
2022/09/08 09:14:22;;;;;;;1.13;0.93;;;16.10;99.90;;;;;;5113842;27;20244;-74
2022/09/08 09:17:07;;;;;;;1.47;1.20;;;16.10;99.90;;;;;;5113223;28;20200;-75
2022/09/08 09:19:52;;;;;;;1.23;1.13;;;16.40;99.90;;;;;;5113522;28;20276;-75
2022/09/08 09:22:29;;;;;;;2.60;1.10;;;16.60;99.90;;;;;;5113671;28;20252;-75
2022/09/08 09:25:12;;;;;;;2.43;1.17;;;16.80;99.90;;;;;;5113599;28;20213;-75
2022/09/08 09:27:44;;;;;;;1.20;1.07;;;16.90;99.90;;;;;;5113329;28;20200;-76
2022/09/08 09:30:31;;;;;;;2.75;0.90;;;16.90;99.90;;;;;;5113655;28;20202;-76
2022/09/08 09:33:39;;;;;;;1.30;1.10;;;17.30;99.90;;;;;;5113697;28;20203;-77
2022/09/08 09:36:31;;;;;;;2.10;1.00;;;17.30;99.90;;;;;;5092685;28;20203;-76
2022/09/08 09:39:17;;;;;;;1.38;1.02;;;17.60;99.90;;;;;;5113227;28;20705;-77
2022/09/08 09:42:03;;;;;;;0.80;0.80;;;17.50;99.90;;;;;;5113405;28;20259;-77
2022/09/08 09:44:44;;;;;;;1.00;0.90;;;17.10;99.90;;;;;;5113256;28;20268;-76
2022/09/08 09:47:40;;;;;;;0.90;0.77;;;17.00;99.90;;;;;;5113433;28;20605;-77
2022/09/08 09:50:30;;;;;;;1.27;1.00;;;17.90;99.90;;;;;;5116836;28;20199;-77
2022/09/08 09:53:09;;;;;;;1.70;1.00;;;18.20;99.90;;;;;;5107098;28;20282;-77
2022/09/08 09:56:08;;;;;;;1.10;1.00;;;18.60;99.90;;;;;;5117769;28;20219;-77
2022/09/08 09:59:02;;;;;;;0.88;0.85;;;19.10;99.90;;;;;;5119525;28;20199;-76
2022/09/08 10:01:45;;;;;;;1.38;0.90;;;19.30;99.90;;;;;;5116771;28;20642;-78
2022/09/08 10:04:46;;;;;;;1.33;0.70;;;19.80;99.90;;;;;;5113350;28;20245;-76
2022/09/08 10:07:43;;;;;;;1.58;0.95;;;19.20;99.90;;;;;;5112885;28;20207;-76
2022/09/08 10:10:27;;;;;;;0.65;0.65;;;18.80;99.90;;;;;;5113280;28;20200;-76
2022/09/08 10:13:38;;;;;;;1.15;0.80;;;18.80;99.90;;;;;;5113318;28;20200;-76
2022/09/08 10:16:24;;;;;;;0.70;0.70;;;18.60;99.90;;;;;;5113343;28;20224;-76
2022/09/08 10:19:10;;;;;;;0.60;0.60;;;18.40;99.90;;;;;;5113020;28;20241;-76
2022/09/08 10:22:03;;;;;;;1.95;1.00;;;18.30;99.90;;;;;;5113106;28;20237;-76
2022/09/08 10:25:02;;;;;;;1.45;0.90;;;18.40;99.90;;;;;;5113061;28;20219;-76
2022/09/08 10:28:17;;;;;;;1.33;1.00;;;18.50;99.90;;;;;;5112995;28;20670;-76
2022/09/08 10:31:02;;;;;;;0.80;0.80;;;18.60;99.90;;;;;;5117292;28;20257;-77
2022/09/08 10:34:00;;;;;;;1.98;0.93;;;18.50;99.90;;;;;;5117015;27;20260;-77
2022/09/08 10:36:37;;;;;;;1.00;0.90;;;19.10;99.90;;;;;;5116808;28;20742;-78
2022/09/08 10:39:25;;;;;;;0.88;0.85;;;19.50;99.90;;;;;;5116653;28;20600;-76
2022/09/08 10:42:38;;;;;;;1.23;1.05;;;19.30;99.90;;;;;;5116733;28;20588;-77
2022/09/08 10:45:21;;;;;;;1.55;1.00;;;19.50;99.90;;;;;;5116840;28;20203;-77
2022/09/08 10:48:29;;;;;;;2.53;1.10;;;20.10;99.90;;;;;;5116557;28;20716;-77
2022/09/08 10:51:10;;;;;;;0.80;0.80;;;19.70;99.90;;;;;;5116557;28;20196;-77
2022/09/08 10:53:54;;;;;;;1.42;1.10;;;21.00;99.90;;;;;;5117092;28;20207;-77
2022/09/08 10:56:27;;;;;;;0.93;0.90;;;20.70;99.90;;;;;;5116414;28;20273;-76
2022/09/08 10:59:19;;;;;;;0.80;0.80;;;19.90;99.90;;;;;;5116430;28;20196;-77
2022/09/08 11:02:09;;;;;;;2.58;0.95;;;19.60;99.90;;;;;;5116643;28;20253;-76
2022/09/08 11:05:11;;;;;;;2.63;1.00;;;19.60;99.90;;;;;;5116476;28;20204;-77
2022/09/08 11:07:56;;;;;;;2.55;1.10;;;19.50;99.90;;;;;;5116221;28;20600;-76
2022/09/08 11:10:41;;;;;;;1.15;0.90;;;20.00;99.90;;;;;;5116364;28;20204;-77
2022/09/08 11:13:27;;;;;;;1.83;1.30;;;21.50;99.90;;;;;;5116177;28;20260;-76
2022/09/08 11:16:29;;;;;;;1.38;1.08;;;22.10;99.90;;;;;;5116024;28;20196;-76
2022/09/08 11:19:19;;;;;;;1.75;1.00;;;23.70;99.90;;;;;;5112776;28;20233;-77
2022/09/08 11:22:02;;;;;;;1.35;0.75;;;24.70;99.90;;;;;;5116255;28;20646;-76
2022/09/08 11:24:37;;;;;;;2.45;0.90;;;23.10;99.90;;;;;;5115879;28;20403;-77
2022/09/08 11:27:15;;;;;;;2.05;1.20;;;21.50;99.90;;;;;;5116154;28;20205;-76
2022/09/08 11:29:42;;;;;;;1.85;1.00;;;20.40;99.90;;;;;;5116286;28;20566;-78
2022/09/08 11:32:19;;;;;;;1.55;1.10;;;20.80;99.90;;;;;;5116016;28;20203;-78
2022/09/08 11:35:01;;;;;;;3.72;1.00;;;21.80;99.90;;;;;;5115715;28;20249;-77
2022/09/08 11:37:52;;;;;;;1.52;1.10;;;24.20;99.90;;;;;;5115948;28;20199;-78
2022/09/08 11:40:44;;;;;;;1.90;1.00;;;23.80;99.90;;;;;;5115310;28;20284;-77
2022/09/08 11:43:28;;;;;;;1.23;0.90;;;23.90;99.90;;;;;;5077239;28;20199;-79
2022/09/08 11:46:14;;;;;;;1.10;1.00;;;23.20;99.90;;;;;;5115900;28;20210;-78
2022/09/08 11:49:03;;;;;;;1.27;1.00;;;20.60;99.90;;;;;;5115613;28;20200;-78
2022/09/08 11:51:47;;;;;;;2.60;1.08;;;20.00;99.90;;;;;;5115536;28;20253;-78
2022/09/08 11:54:41;;;;;;;2.35;1.15;;;20.50;99.90;;;;;;5115701;28;20200;-79
2022/09/08 11:57:47;;;;;;;2.05;0.90;;;20.20;99.90;;;;;;5115499;28;20231;-78
2022/09/08 12:00:22;;;;;;;0.80;0.77;;;20.30;99.90;;;;;;5066898;27;20219;-78
2022/09/08 12:03:28;;;;;;;1.13;0.80;;;21.60;99.90;;;;;;5115280;28;20196;-78
2022/09/08 12:06:16;;;;;;;1.50;0.90;;;22.50;99.90;;;;;;5114969;28;20658;-78
2022/09/08 12:09:02;;;;;;;1.45;0.88;;;22.50;99.90;;;;;;5115329;28;20248;-78
2022/09/08 12:11:47;;;;;;;1.10;1.00;;;22.30;99.90;;;;;;5115314;28;20195;-77
2022/09/08 12:14:22;;;;;;;1.00;0.90;;;22.50;99.90;;;;;;5115052;28;20196;-77
2022/09/08 12:17:00;;;;;;;2.95;1.02;;;23.60;99.90;;;;;;5114934;28;20564;-78
2022/09/08 12:19:49;;;;;;;1.70;0.80;;;24.60;99.90;;;;;;5114881;28;20696;-77
2022/09/08 12:22:47;;;;;;;3.08;1.20;;;24.10;99.90;;;;;;5114965;28;20206;-77
2022/09/08 12:25:32;;;;;;;2.50;1.20;;;25.00;99.90;;;;;;5115238;28;20252;-77
2022/09/08 12:28:19;;;;;;;1.67;1.05;;;25.40;99.90;;;;;;5115085;28;20199;-76
2022/09/08 12:31:00;;;;;;;2.60;1.10;;;24.10;99.90;;;;;;5115488;28;20191;-78
2022/09/08 12:33:52;;;;;;;1.80;1.20;;;24.20;99.90;;;;;;5115887;28;20661;-77
2022/09/08 12:36:25;;;;;;;2.55;1.00;;;23.70;99.90;;;;;;5125491;28;20240;-80
2022/09/08 12:39:25;;;;;;;2.10;1.20;;;24.30;99.90;;;;;;5125999;28;20206;-80
2022/09/08 12:42:15;;;;;;;1.05;0.95;;;25.40;99.90;;;;;;5134920;28;20224;-79
2022/09/08 12:44:55;;;;;;;2.67;1.20;;;25.30;98.90;;;;;;5134393;28;20196;-78
2022/09/08 12:47:33;;;;;;;2.28;1.23;;;24.70;99.40;;;;;;5136934;28;20196;-79
2022/09/08 12:50:16;;;;;;;2.33;1.20;;;22.80;99.90;;;;;;5129163;28;20191;-78
2022/09/08 12:53:09;;;;;;;1.40;1.00;;;22.10;99.90;;;;;;5113460;28;20592;-77
2022/09/08 12:55:44;;;;;;;2.35;1.15;;;21.40;99.90;;;;;;5107351;28;20254;-78
2022/09/08 12:58:21;;;;;;;3.45;1.40;;;21.40;99.90;;;;;;5114053;28;20199;-78
2022/09/08 13:00:57;;;;;;;1.20;1.10;;;22.40;99.90;;;;;;5114323;28;20223;-78
2022/09/08 13:03:34;;;;;;;2.63;1.10;;;22.90;99.90;;;;;;5114090;28;20201;-78
2022/09/08 13:06:31;;;;;;;1.15;1.05;;;24.00;99.90;;;;;;5113972;28;20201;-78
2022/09/08 13:09:00;;;;;;;3.13;1.23;;;22.70;99.90;;;;;;5113972;28;20192;-78
2022/09/08 13:11:49;;;;;;;2.58;1.10;;;22.10;99.90;;;;;;5113882;28;20199;-78
2022/09/08 13:14:31;;;;;;;1.30;1.15;;;21.80;99.90;;;;;;5113876;28;20248;-78
2022/09/08 13:17:04;;;;;;;1.73;1.00;;;21.60;99.90;;;;;;5113714;28;20248;-77
2022/09/08 13:19:32;;;;;;;3.40;1.10;;;21.50;99.90;;;;;;5113787;28;20719;-78
2022/09/08 13:22:23;;;;;;;2.15;1.13;;;21.10;99.90;;;;;;5114127;28;20223;-78
2022/09/08 13:24:58;;;;;;;2.58;1.27;;;21.00;99.90;;;;;;5113585;28;20650;-78
2022/09/08 13:27:40;;;;;;;1.95;1.30;;;21.70;99.90;;;;;;5113796;28;20248;-78
2022/09/08 13:30:15;;;;;;;3.45;1.10;;;22.20;99.90;;;;;;5113758;28;20203;-78
2022/09/08 13:33:10;;;;;;;2.25;1.35;;;22.30;99.90;;;;;;5113368;28;20580;-77
2022/09/08 13:36:02;;;;;;;1.48;1.10;;;22.80;99.90;;;;;;5113407;28;20225;-78